FW6149 Weather Reports


time (UTC)temp
C
wind
direction
speed
KPH
gust
KPH
rain 1hr
cm
rain 24hr
cm
rain mn
cm
humidity
%
barometer
mb
20200229095515 11 0.0 0.0 0.00 0.00 0.00 95 1024.6
20200229094515 10 0.0 0.0 0.00 0.00 0.00 94 1024.7
20200229093516 10 0.0 0.0 0.00 0.00 0.00 93 1025.1
20200229092515 10 0.0 0.0 0.00 0.00 0.00 93 1025.2
20200229090516 10 0.0 0.0 0.00 0.00 0.00 94 1025.5
20200229085517 10 0.0 0.0 0.00 0.00 0.00 93 1025.5
20200229084517 10 0.0 0.0 0.00 0.00 0.00 93 1025.7
20200229083517 10 0.0 0.0 0.00 0.00 0.00 93 1025.8
20200229082517 10 0.0 0.0 0.00 0.00 0.00 93 1025.8
20200229081518 10 0.0 1.6 0.00 0.00 0.00 93 1025.9
20200229080517 10 0.0 1.6 0.00 0.00 0.00 93 1026.0
20200229075517 10 0.0 1.6 0.00 0.00 0.00 93 1026.1
20200229074517 10 0.0 1.6 0.00 0.00 0.00 93 1026.1
20200229073517 10 0.0 1.6 0.00 0.00 0.00 93 1026.3
20200229072517 10 0.0 1.6 0.00 0.00 0.00 93 1026.3
20200229071517 10 0.0 1.6 0.00 0.00 0.00 92 1026.5
20200229070519 10 0.0 1.6 0.00 0.00 0.00 92 1026.5
20200229065517 10 0.0 1.6 0.00 0.00 0.00 93 1026.7
20200229064517 10 67 1.6 1.6 0.00 0.00 0.00 92 1026.8
20200229063517 10 0.0 3.2 0.00 0.00 0.00 92 1026.9
20200229062517 10 0.0 1.6 0.00 0.00 0.00 92 1027.0
20200229061517 10 0.0 1.6 0.00 0.00 0.00 92 1027.1
20200229060517 10 67 1.6 3.2 0.00 0.00 0.00 91 1027.3
20200229055516 10 67 1.6 3.2 0.00 0.00 0.00 90 1027.4
20200229054516 11 0.0 1.6 0.00 0.00 0.00 90 1027.5
20200229053516 11 67 1.6 1.6 0.00 0.00 0.00 90 1027.7
20200229052516 11 0.0 1.6 0.00 0.00 0.00 90 1027.7
20200229051516 11 67 1.6 3.2 0.00 0.00 0.00 90 1027.7
20200229050516 11 67 1.6 3.2 0.00 0.00 0.00 90 1027.7
20200229045516 11 67 1.6 3.2 0.00 0.00 0.00 90 1027.8
20200229044515 11 67 1.6 3.2 0.00 0.00 0.00 90 1027.9
20200229043516 11 67 1.6 4.8 0.00 0.00 0.00 90 1027.9
20200229042515 11 67 1.6 3.2 0.00 0.00 0.00 90 1027.9
20200229041516 11 67 1.6 3.2 0.00 0.00 0.00 89 1028.0
20200229040516 11 67 1.6 3.2 0.00 0.00 0.00 89 1028.0
20200229035516 11 67 1.6 3.2 0.00 0.00 0.00 89 1028.0
20200229034516 11 67 1.6 3.2 0.00 0.00 0.00 88 1028.0
20200229033518 11 67 1.6 3.2 0.00 0.00 0.00 89 1027.9
20200229032516 11 67 3.2 4.8 0.00 0.00 0.00 89 1028.0
20200229031518 11 67 3.2 4.8 0.00 0.00 0.00 88 1027.9
20200229030516 11 67 1.6 3.2 0.00 0.00 0.00 88 1027.9
20200229025515 11 67 1.6 3.2 0.00 0.00 0.00 88 1027.8
20200229024515 11 67 1.6 3.2 0.00 0.00 0.00 87 1027.8
20200229023515 11 0.0 1.6 0.00 0.00 0.00 87 1027.7
20200229022520 11 0.0 1.6 0.00 0.00 0.00 86 1027.4
20200229021515 12 0.0 1.6 0.00 0.00 0.00 86 1027.3
20200229020519 12 0.0 1.6 0.00 0.00 0.00 85 1027.2
20200229015518 12 0.0 1.6 0.00 0.00 0.00 84 1027.2
20200229014515 12 0.0 1.6 0.00 0.00 0.00 82 1027.1
20200229013517 13 67 1.6 3.2 0.00 0.00 0.00 82 1027.0
20200229012517 13 0.0 0.0 0.00 0.00 0.00 78 1026.8
20200229011517 14 0.0 1.6 0.00 0.00 0.00 76 1026.7
20200229010518 15 0.0 0.0 0.00 0.00 0.00 74 1026.4
20200229005517 16 0.0 3.2 0.00 0.00 0.00 71 1026.4
20200229004517 17 0.0 1.6 0.00 0.00 0.00 70 1026.5
20200229003517 17 67 1.6 3.2 0.00 0.00 0.00 69 1026.5
20200229002515 18 67 1.6 1.6 0.00 0.00 0.00 67 1026.6
20200229001517 18 67 3.2 4.8 0.00 0.00 0.00 66 1026.4
20200229000519 19 45 8.0 12.9 0.00 0.00 0.00 64 1026.4
20200228235517 19 67 8.0 11.3 0.00 0.00 0.00 61 1026.3
20200228234517 20 67 6.4 12.9 0.00 0.00 0.00 62 1026.3
20200228233519 20 67 6.4 14.5 0.00 0.00 0.00 60 1026.2
20200228232517 20 45 9.7 14.5 0.00 0.00 0.00 59 1026.1
20200228231523 20 67 9.7 16.1 0.00 0.00 0.00 58 1026.1
20200228230520 20 67 8.0 16.1 0.00 0.00 0.00 60 1026.0
20200228225520 20 45 11.3 19.3 0.00 0.00 0.00 60 1025.9
20200228224517 20 67 11.3 19.3 0.00 0.00 0.00 59 1026.1
20200228223518 21 67 8.0 19.3 0.00 0.00 0.00 57 1025.9
20200228222521 21 45 11.3 19.3 0.00 0.00 0.00 56 1025.7
20200228221518 21 45 9.7 17.7 0.00 0.00 0.00 56 1025.7
20200228220519 21 45 9.7 19.3 0.00 0.00 0.00 55 1025.7
20200228215520 21 67 9.7 19.3 0.00 0.00 0.00 55 1025.8
20200228214517 21 45 12.9 20.9 0.00 0.00 0.00 56 1025.8
20200228213517 21 67 6.4 16.1 0.00 0.00 0.00 56 1025.9
20200228212532 21 67 11.3 19.3 0.00 0.00 0.00 57 1025.9
20200228211517 21 67 8.0 20.9 0.00 0.00 0.00 59 1025.9
20200228210518 21 67 8.0 17.7 0.00 0.00 0.00 58 1025.9
20200228205522 21 45 8.0 17.7 0.00 0.00 0.00 59 1025.9
20200228204516 21 45 14.5 22.5 0.00 0.00 0.00 57 1026.0
20200228203517 21 67 11.3 20.9 0.00 0.00 0.00 59 1026.0
20200228202519 21 45 12.9 20.9 0.00 0.00 0.00 57 1026.4
20200228112016 9 0.0 1.6 0.00 0.00 0.00 82 1025.5
20200228111015 9 22 3.2 4.8 0.00 0.00 0.00 83 1025.3
20200228110015 8 22 3.2 4.8 0.00 0.00 0.00 85 1025.3
20200228105015 7 0.0 0.0 0.00 0.00 0.00 87 1025.3
20200228104016 7 0.0 0.0 0.00 0.00 0.00 86 1025.2
20200228103015 7 0.0 0.0 0.00 0.00 0.00 85 1025.2
20200228102015 8 0.0 0.0 0.00 0.00 0.00 86 1025.0
20200228101015 8 0.0 0.0 0.00 0.00 0.00 86 1025.0
20200228100015 8 0.0 0.0 0.00 0.00 0.00 86 1025.0